createdAt,value
2023-08-13T00:01:26.093Z,21.63
2023-08-13T00:03:27.994Z,22.70
2023-08-13T00:05:29.764Z,24.30
2023-08-13T00:07:31.559Z,20.20
2023-08-13T00:09:33.296Z,19.30
2023-08-13T00:11:35.444Z,17.37
2023-08-13T00:13:37.182Z,17.03
2023-08-13T00:15:39.088Z,16.60
2023-08-13T00:17:40.867Z,14.60
2023-08-13T00:19:42.652Z,18.23
2023-08-13T00:21:54.722Z,20.90
2023-08-13T00:24:06.547Z,18.10
2023-08-13T00:26:08.319Z,18.60
2023-08-13T00:28:10.168Z,20.67
2023-08-13T00:30:12.158Z,22.77
2023-08-13T00:32:14.578Z,17.83
2023-08-13T00:34:16.485Z,17.40
2023-08-13T00:36:18.191Z,18.00
2023-08-13T00:38:20.151Z,20.93
2023-08-13T00:40:21.935Z,12.33
2023-08-13T00:42:23.683Z,11.87
2023-08-13T00:44:25.553Z,12.10
2023-08-13T00:46:27.645Z,15.23
2023-08-13T00:48:29.672Z,15.00
2023-08-13T00:50:31.712Z,12.70
2023-08-13T00:52:33.701Z,13.03
2023-08-13T00:54:36.757Z,13.80
2023-08-13T00:56:38.946Z,13.77
2023-08-13T00:58:41.840Z,12.97
2023-08-13T01:00:43.551Z,17.40
2023-08-13T01:02:45.457Z,14.60
2023-08-13T01:04:47.121Z,9.43
2023-08-13T01:07:01.198Z,11.07
2023-08-13T01:09:07.105Z,13.70
2023-08-13T01:11:36.574Z,10.33
2023-08-13T01:13:44.105Z,13.63
2023-08-13T01:15:46.720Z,14.03
2023-08-13T01:17:53.418Z,12.30
2023-08-13T01:19:55.250Z,12.67
2023-08-13T01:21:56.935Z,10.97
2023-08-13T01:23:58.650Z,13.93
2023-08-13T01:26:09.643Z,11.77
2023-08-13T01:28:28.704Z,13.40
2023-08-13T01:30:40.595Z,26.60
2023-08-13T01:32:51.819Z,17.67
2023-08-13T01:34:54.065Z,12.90
2023-08-13T01:36:56.457Z,12.60
2023-08-13T01:39:00.137Z,13.43
2023-08-13T01:41:03.172Z,13.90
2023-08-13T01:43:05.218Z,12.73
2023-08-13T01:45:07.346Z,16.13
2023-08-13T01:47:09.132Z,13.10
2023-08-13T01:49:10.971Z,14.40
2023-08-13T01:51:12.763Z,11.60
2023-08-13T01:53:14.450Z,9.53
2023-08-13T01:55:16.239Z,15.80
2023-08-13T01:57:18.043Z,12.10
2023-08-13T01:59:19.738Z,12.30
2023-08-13T02:01:21.543Z,16.27
2023-08-13T02:03:23.313Z,9.80
2023-08-13T02:05:24.966Z,11.13
2023-08-13T02:07:26.709Z,14.50
2023-08-13T02:09:28.428Z,10.90
2023-08-13T02:11:30.465Z,12.50
2023-08-13T02:13:32.561Z,10.10
2023-08-13T02:15:34.324Z,15.40
2023-08-13T02:17:36.126Z,13.30
2023-08-13T02:19:37.856Z,15.37
2023-08-13T02:21:39.561Z,10.60
2023-08-13T02:23:41.289Z,11.70
2023-08-13T02:25:43.062Z,12.93
2023-08-13T02:27:44.815Z,20.23
2023-08-13T02:29:46.531Z,17.77
2023-08-13T02:31:48.222Z,18.80
2023-08-13T02:33:49.981Z,14.93
2023-08-13T02:35:51.704Z,17.13
2023-08-13T02:37:53.606Z,14.23
2023-08-13T02:39:55.282Z,15.77
2023-08-13T02:41:56.973Z,14.43
2023-08-13T02:43:58.740Z,20.53
2023-08-13T02:46:00.500Z,11.37
2023-08-13T02:48:02.698Z,18.93
2023-08-13T02:50:04.786Z,9.90
2023-08-13T02:52:06.624Z,13.17
2023-08-13T02:54:08.341Z,12.10
2023-08-13T02:56:11.333Z,11.40
2023-08-13T02:58:13.032Z,14.33
2023-08-13T03:00:15.435Z,8.07
2023-08-13T03:02:18.172Z,10.23
2023-08-13T03:04:20.387Z,11.97
2023-08-13T03:06:23.285Z,11.90
2023-08-13T03:08:25.629Z,12.60
2023-08-13T03:10:27.577Z,8.70
2023-08-13T03:12:29.263Z,15.17
2023-08-13T03:14:30.987Z,9.67
2023-08-13T03:16:32.703Z,11.77
2023-08-13T03:18:34.365Z,7.83
2023-08-13T03:20:36.313Z,8.30
2023-08-13T03:22:38.828Z,8.07
2023-08-13T03:24:40.665Z,10.43
2023-08-13T03:26:42.497Z,7.80
2023-08-13T03:28:44.295Z,9.80
2023-08-13T03:30:46.215Z,11.53
2023-08-13T03:32:48.134Z,13.47
2023-08-13T03:34:49.926Z,9.87
2023-08-13T03:36:53.210Z,12.50
2023-08-13T03:38:55.127Z,20.20
2023-08-13T03:40:57.400Z,8.97
2023-08-13T03:42:59.092Z,11.23
2023-08-13T03:45:00.885Z,15.70
2023-08-13T03:47:02.628Z,8.47
2023-08-13T03:49:04.497Z,8.60
2023-08-13T03:51:06.433Z,7.47
2023-08-13T03:53:08.366Z,12.67
2023-08-13T03:55:10.261Z,10.97
2023-08-13T03:57:11.913Z,12.37
2023-08-13T03:59:13.773Z,7.33
2023-08-13T04:01:15.695Z,8.77
2023-08-13T04:03:25.564Z,11.77
2023-08-13T04:05:28.339Z,10.73
2023-08-13T04:07:30.050Z,11.50
2023-08-13T04:09:31.773Z,11.20
2023-08-13T04:11:33.757Z,9.23
2023-08-13T04:13:35.539Z,10.57
2023-08-13T04:15:37.239Z,11.30
2023-08-13T04:17:39.087Z,11.00
2023-08-13T04:19:40.843Z,8.40
2023-08-13T04:21:42.705Z,14.10
2023-08-13T04:23:44.780Z,8.50
2023-08-13T04:25:46.631Z,9.57
2023-08-13T04:27:48.294Z,11.60
2023-08-13T04:29:50.158Z,8.80
2023-08-13T04:31:51.924Z,8.63
2023-08-13T04:33:53.731Z,10.87
2023-08-13T04:35:56.218Z,7.80
2023-08-13T04:37:58.034Z,7.03
2023-08-13T04:39:59.773Z,8.87
2023-08-13T04:42:01.665Z,9.60
2023-08-13T04:44:03.760Z,9.23
2023-08-13T04:46:05.690Z,14.23
2023-08-13T04:48:07.713Z,8.43
2023-08-13T04:50:10.222Z,9.53
2023-08-13T04:52:12.090Z,7.03
2023-08-13T04:54:14.045Z,11.40
2023-08-13T04:56:15.826Z,13.73
2023-08-13T04:58:17.585Z,9.33
2023-08-13T05:00:19.416Z,7.40
2023-08-13T05:02:21.122Z,8.33
2023-08-13T05:04:22.879Z,9.97
2023-08-13T05:06:24.846Z,8.97
2023-08-13T05:08:26.603Z,10.03
2023-08-13T05:10:28.282Z,9.47
2023-08-13T05:12:30.015Z,8.03
2023-08-13T05:14:31.835Z,12.50
2023-08-13T05:16:33.617Z,10.40
2023-08-13T05:18:35.430Z,6.90
2023-08-13T05:20:37.249Z,9.17
2023-08-13T05:22:39.072Z,14.13
2023-08-13T05:24:41.049Z,8.53
2023-08-13T05:26:42.784Z,9.63
2023-08-13T05:28:44.449Z,7.77
2023-08-13T05:30:46.767Z,8.80
2023-08-13T05:32:48.760Z,9.93
2023-08-13T05:34:50.573Z,8.87
2023-08-13T05:36:52.244Z,13.40
2023-08-13T05:38:53.970Z,13.97
2023-08-13T05:40:55.666Z,11.43
2023-08-13T05:42:57.358Z,10.40
2023-08-13T05:44:59.005Z,9.70
2023-08-13T05:47:00.779Z,11.70
2023-08-13T05:49:02.441Z,10.27
2023-08-13T05:51:04.182Z,10.97
2023-08-13T05:53:06.331Z,15.97
2023-08-13T05:55:08.811Z,13.70
2023-08-13T05:57:10.624Z,12.70
2023-08-13T05:59:12.357Z,12.23
2023-08-13T06:01:16.308Z,9.87
2023-08-13T06:03:18.239Z,13.23
2023-08-13T06:05:20.059Z,11.37
2023-08-13T06:07:21.738Z,13.03
2023-08-13T06:09:23.597Z,11.03
2023-08-13T06:11:25.544Z,11.17
2023-08-13T06:13:27.209Z,10.00
2023-08-13T06:15:29.007Z,11.13
2023-08-13T06:17:30.880Z,10.33
2023-08-13T06:19:32.651Z,19.40
2023-08-13T06:21:34.439Z,7.83
2023-08-13T06:23:36.349Z,12.20
2023-08-13T06:25:40.389Z,8.00
2023-08-13T06:27:42.258Z,10.40
2023-08-13T06:29:55.791Z,11.57
2023-08-13T06:32:06.774Z,7.33
2023-08-13T06:34:08.518Z,7.40
2023-08-13T06:36:10.411Z,7.33
2023-08-13T06:38:12.337Z,7.20
2023-08-13T06:40:14.211Z,9.83
2023-08-13T06:42:16.219Z,8.23
2023-08-13T06:44:20.240Z,12.20
2023-08-13T06:46:21.975Z,9.70
2023-08-13T06:48:23.740Z,9.57
2023-08-13T06:50:26.938Z,7.53
2023-08-13T06:52:28.636Z,6.87
2023-08-13T06:54:30.344Z,7.37
2023-08-13T06:56:32.157Z,8.83
2023-08-13T06:58:34.200Z,9.23
2023-08-13T07:00:40.465Z,8.33
2023-08-13T07:02:42.719Z,8.47
2023-08-13T07:04:44.595Z,7.80
2023-08-13T07:06:46.414Z,9.47
2023-08-13T07:08:48.122Z,10.83
2023-08-13T07:10:50.811Z,97.10
2023-08-13T07:12:52.577Z,48.93
2023-08-13T07:14:54.327Z,33.63
2023-08-13T07:16:56.110Z,21.63
2023-08-13T07:18:58.992Z,32.40
2023-08-13T07:21:00.773Z,20.27
2023-08-13T07:23:02.595Z,20.80
2023-08-13T07:25:06.604Z,25.70
2023-08-13T07:27:11.193Z,15.43
2023-08-13T07:29:13.405Z,6.80
2023-08-13T07:31:15.794Z,5.83
2023-08-13T07:33:17.643Z,5.20
2023-08-13T07:35:19.403Z,6.10
2023-08-13T07:37:21.134Z,5.67
2023-08-13T07:39:23.493Z,5.17
2023-08-13T07:41:25.239Z,6.00
2023-08-13T07:43:27.080Z,13.93
2023-08-13T07:45:30.829Z,5.10
2023-08-13T07:47:33.825Z,5.53
2023-08-13T07:49:35.706Z,6.73
2023-08-13T07:51:37.401Z,5.40
2023-08-13T07:53:39.939Z,7.77
2023-08-13T07:55:41.777Z,6.57
2023-08-13T07:57:43.925Z,5.03
2023-08-13T07:59:45.815Z,4.23
2023-08-13T08:01:48.124Z,4.30
2023-08-13T08:03:50.134Z,5.90
2023-08-13T08:05:52.938Z,5.03
2023-08-13T08:07:54.635Z,6.83
2023-08-13T08:09:56.309Z,4.40
2023-08-13T08:11:57.984Z,7.07
2023-08-13T08:13:59.691Z,5.80
2023-08-13T08:16:01.424Z,6.70
2023-08-13T08:18:03.209Z,5.90
2023-08-13T08:20:07.676Z,6.30
2023-08-13T08:22:09.451Z,5.13
2023-08-13T08:24:11.281Z,6.33
2023-08-13T08:26:13.134Z,5.43
2023-08-13T08:28:14.864Z,5.47
2023-08-13T08:30:16.615Z,5.43
2023-08-13T08:32:18.538Z,7.90
2023-08-13T08:34:20.531Z,5.23
2023-08-13T08:36:22.454Z,4.57
2023-08-13T08:38:24.226Z,3.27
2023-08-13T08:40:26.282Z,5.73
2023-08-13T08:42:31.190Z,4.17
2023-08-13T08:44:34.710Z,3.77
2023-08-13T08:46:38.040Z,3.50
2023-08-13T08:48:41.210Z,3.50
2023-08-13T08:50:44.351Z,3.13
2023-08-13T08:52:47.949Z,3.17
2023-08-13T08:54:50.421Z,3.80
2023-08-13T08:56:52.105Z,3.97
2023-08-13T08:58:53.860Z,4.03
2023-08-13T09:01:01.821Z,5.17
2023-08-13T09:03:05.602Z,5.17
2023-08-13T09:05:08.353Z,6.67
2023-08-13T09:07:10.147Z,3.40
2023-08-13T09:09:12.157Z,3.90
2023-08-13T09:11:14.160Z,2.93
2023-08-13T09:13:15.946Z,3.60
2023-08-13T09:15:17.788Z,4.30
2023-08-13T09:17:19.512Z,3.30
2023-08-13T09:19:25.268Z,4.23
2023-08-13T09:21:27.133Z,3.50
2023-08-13T09:23:29.057Z,4.20
2023-08-13T09:25:31.403Z,5.68
2023-08-13T09:27:33.206Z,3.50
2023-08-13T09:29:36.048Z,4.45
2023-08-13T09:31:37.903Z,4.05
2023-08-13T09:33:39.726Z,3.72
2023-08-13T09:35:42.660Z,4.25
2023-08-13T09:37:44.341Z,2.63
2023-08-13T09:39:46.119Z,2.30
2023-08-13T09:41:50.476Z,2.88
2023-08-13T09:43:54.723Z,2.30
2023-08-13T09:45:59.196Z,2.60
2023-08-13T09:48:08.019Z,2.78
2023-08-13T09:50:12.982Z,3.63
2023-08-13T09:52:23.298Z,3.03
2023-08-13T09:54:47.112Z,3.72
2023-08-13T09:56:56.234Z,2.60
2023-08-13T09:58:58.519Z,3.17
2023-08-13T10:01:01.409Z,2.75
2023-08-13T10:03:03.621Z,2.97
2023-08-13T10:05:05.896Z,2.58
2023-08-13T10:07:08.476Z,3.90
2023-08-13T10:09:11.468Z,3.97
2023-08-13T10:11:14.447Z,3.20
2023-08-13T10:13:16.475Z,2.58
2023-08-13T10:15:21.410Z,2.80
2023-08-13T10:17:27.935Z,2.92
2023-08-13T10:19:31.018Z,2.67
2023-08-13T10:21:36.958Z,2.50
2023-08-13T10:23:39.127Z,2.10
2023-08-13T10:25:41.021Z,2.65
2023-08-13T10:27:46.582Z,2.20
2023-08-13T10:29:48.334Z,2.95
2023-08-13T10:32:17.302Z,2.33
2023-08-13T10:34:19.437Z,4.18
2023-08-13T10:36:21.391Z,3.47
2023-08-13T10:38:34.492Z,2.63
2023-08-13T10:40:36.992Z,2.25
2023-08-13T10:42:39.204Z,4.28
2023-08-13T10:44:41.637Z,2.13
2023-08-13T10:46:44.263Z,2.38
2023-08-13T10:48:46.192Z,2.60
2023-08-13T10:50:48.113Z,2.55
2023-08-13T10:52:54.597Z,4.05
2023-08-13T10:54:59.128Z,2.75
2023-08-13T10:57:02.274Z,3.70
2023-08-13T10:59:04.289Z,2.67
2023-08-13T11:01:15.078Z,2.97
2023-08-13T11:03:19.802Z,3.55
2023-08-13T11:05:22.772Z,2.30
2023-08-13T11:07:24.990Z,2.30
2023-08-13T11:09:27.473Z,2.85
2023-08-13T11:11:29.607Z,2.78
2023-08-13T11:13:31.426Z,4.35
2023-08-13T11:15:33.179Z,1.73
2023-08-13T11:17:35.093Z,2.35
2023-08-13T11:19:36.872Z,4.03
2023-08-13T11:21:38.674Z,2.47
2023-08-13T11:23:40.703Z,2.50
2023-08-13T11:25:44.634Z,3.05
2023-08-13T11:27:47.181Z,3.10
2023-08-13T11:29:49.090Z,2.95
2023-08-13T11:31:51.219Z,5.00
2023-08-13T11:33:53.030Z,3.85
2023-08-13T11:35:55.439Z,2.83
2023-08-13T11:37:57.362Z,3.88
2023-08-13T11:39:59.128Z,3.15
2023-08-13T11:42:10.516Z,2.25
2023-08-13T11:44:12.271Z,2.92
2023-08-13T11:46:14.245Z,2.53
2023-08-13T11:48:18.452Z,2.35
2023-08-13T11:50:24.607Z,2.92
2023-08-13T11:52:26.365Z,3.25
2023-08-13T11:54:28.115Z,3.05
2023-08-13T11:56:29.800Z,2.97
2023-08-13T11:58:31.520Z,3.83
2023-08-13T12:00:34.173Z,3.13
2023-08-13T12:02:40.696Z,2.30
2023-08-13T12:04:47.484Z,4.82
2023-08-13T12:06:51.709Z,2.50
2023-08-13T12:08:53.904Z,5.13
2023-08-13T12:10:58.437Z,2.45
2023-08-13T12:13:00.782Z,3.45
2023-08-13T12:15:02.558Z,2.53
2023-08-13T12:17:04.394Z,2.72
2023-08-13T12:19:07.436Z,4.97
2023-08-13T12:21:09.227Z,3.97
2023-08-13T12:23:11.180Z,5.03
2023-08-13T12:25:13.099Z,4.55
2023-08-13T12:27:14.813Z,2.95
2023-08-13T12:29:16.598Z,2.40
2023-08-13T12:31:20.131Z,2.80
2023-08-13T12:33:21.854Z,2.67
2023-08-13T12:35:23.839Z,3.75
2023-08-13T12:37:26.588Z,3.42
2023-08-13T12:39:28.510Z,2.72
2023-08-13T12:41:39.080Z,3.25
2023-08-13T12:43:41.944Z,2.60
2023-08-13T12:45:43.699Z,2.50
2023-08-13T12:47:45.424Z,2.88
2023-08-13T12:49:47.262Z,2.60
2023-08-13T12:51:49.083Z,3.38
2023-08-13T12:53:50.768Z,2.53
2023-08-13T12:55:52.742Z,2.55
2023-08-13T12:57:54.552Z,3.08
2023-08-13T12:59:56.266Z,4.63
2023-08-13T13:01:57.985Z,2.58
2023-08-13T13:04:00.206Z,3.25
2023-08-13T13:06:01.969Z,2.55
2023-08-13T13:08:03.905Z,2.30
2023-08-13T13:10:05.971Z,2.35
2023-08-13T13:12:08.466Z,2.30
2023-08-13T13:14:10.401Z,4.07
2023-08-13T13:16:12.368Z,2.30
2023-08-13T13:18:14.436Z,4.97
2023-08-13T13:20:16.205Z,2.58
2023-08-13T13:22:18.472Z,3.55
2023-08-13T13:24:20.557Z,2.47
2023-08-13T13:26:22.372Z,2.38
2023-08-13T13:28:24.084Z,2.85
2023-08-13T13:30:29.826Z,2.72
2023-08-13T13:32:31.776Z,3.35
2023-08-13T13:34:33.514Z,2.78
2023-08-13T13:36:35.234Z,3.55
2023-08-13T13:38:37.055Z,2.60
2023-08-13T13:40:39.084Z,2.60
2023-08-13T13:42:40.815Z,2.08
2023-08-13T13:44:42.641Z,2.40
2023-08-13T13:46:44.411Z,3.22
2023-08-13T13:48:46.125Z,3.10
2023-08-13T13:50:48.094Z,2.90
2023-08-13T13:52:50.361Z,2.10
2023-08-13T13:54:53.650Z,3.90
2023-08-13T13:56:55.428Z,3.65
2023-08-13T13:58:57.145Z,2.85
2023-08-13T14:00:59.066Z,3.80
2023-08-13T14:03:01.025Z,4.00
2023-08-13T14:05:04.011Z,3.00
2023-08-13T14:07:05.863Z,2.10
2023-08-13T14:09:07.948Z,2.40
2023-08-13T14:11:09.620Z,2.08
2023-08-13T14:13:11.428Z,2.72
2023-08-13T14:15:13.354Z,4.82
2023-08-13T14:17:15.102Z,2.70
2023-08-13T14:19:17.073Z,2.13
2023-08-13T14:21:18.814Z,1.70
2023-08-13T14:23:20.547Z,3.00
2023-08-13T14:25:22.409Z,2.40
2023-08-13T14:27:26.514Z,2.75
2023-08-13T14:29:28.953Z,2.17
2023-08-13T14:31:30.827Z,2.75
2023-08-13T14:33:32.791Z,2.13
2023-08-13T14:35:35.333Z,2.67
2023-08-13T14:37:37.004Z,2.42
2023-08-13T14:39:38.729Z,3.13
2023-08-13T14:41:40.508Z,2.15
2023-08-13T14:43:43.481Z,2.20
2023-08-13T14:45:45.560Z,2.13
2023-08-13T14:47:47.514Z,3.33
2023-08-13T14:49:49.618Z,2.17
2023-08-13T14:51:51.356Z,2.13
2023-08-13T14:53:53.517Z,4.15
2023-08-13T14:55:55.273Z,1.83
2023-08-13T14:57:56.956Z,1.65
2023-08-13T14:59:58.744Z,2.22
2023-08-13T15:02:00.715Z,1.85
2023-08-13T15:04:02.557Z,2.40
2023-08-13T15:06:04.554Z,1.55
2023-08-13T15:08:06.407Z,3.75
2023-08-13T15:10:09.601Z,1.48
2023-08-13T15:12:11.800Z,1.90
2023-08-13T15:14:13.510Z,1.92
2023-08-13T15:16:17.470Z,2.42
2023-08-13T15:18:19.348Z,2.10
2023-08-13T15:20:21.289Z,2.00
2023-08-13T15:22:25.085Z,1.65
2023-08-13T15:24:27.014Z,2.55
2023-08-13T15:26:28.716Z,3.83
2023-08-13T15:28:31.265Z,2.47
2023-08-13T15:30:33.231Z,2.00
2023-08-13T15:32:35.004Z,2.15
2023-08-13T15:34:37.163Z,3.22
2023-08-13T15:36:38.861Z,2.05
2023-08-13T15:38:40.614Z,1.98
2023-08-13T15:40:42.317Z,3.55
2023-08-13T15:42:44.319Z,5.70
2023-08-13T15:44:45.969Z,1.65
2023-08-13T15:46:47.702Z,1.77
2023-08-13T15:48:49.545Z,2.83
2023-08-13T15:50:51.323Z,1.85
2023-08-13T15:52:53.805Z,2.17
2023-08-13T15:54:55.647Z,2.13
2023-08-13T15:56:57.366Z,2.40
2023-08-13T15:58:59.013Z,1.75
2023-08-13T16:01:00.782Z,1.60
2023-08-13T16:03:02.939Z,2.75
2023-08-13T16:05:05.159Z,3.22
2023-08-13T16:07:07.224Z,2.17
2023-08-13T16:09:09.059Z,4.25
2023-08-13T16:11:10.738Z,2.08
2023-08-13T16:13:12.544Z,2.83
2023-08-13T16:15:14.544Z,1.95
2023-08-13T16:17:16.334Z,2.13
2023-08-13T16:19:18.701Z,1.60
2023-08-13T16:21:20.429Z,1.67
2023-08-13T16:23:22.198Z,1.92
2023-08-13T16:25:23.929Z,2.33
2023-08-13T16:27:25.697Z,2.35
2023-08-13T16:29:27.391Z,3.58
2023-08-13T16:31:29.237Z,4.10
2023-08-13T16:33:30.973Z,3.28
2023-08-13T16:35:33.237Z,2.53
2023-08-13T16:37:35.094Z,4.28
2023-08-13T16:39:36.882Z,2.20
2023-08-13T16:41:38.581Z,2.10
2023-08-13T16:43:40.386Z,3.85
2023-08-13T16:45:42.215Z,4.60
2023-08-13T16:47:44.252Z,2.20
2023-08-13T16:49:46.490Z,2.88
2023-08-13T16:51:48.203Z,3.67
2023-08-13T16:53:50.135Z,2.60
2023-08-13T16:55:51.968Z,2.45
2023-08-13T16:57:53.768Z,4.57
2023-08-13T16:59:55.463Z,16.85
2023-08-13T17:01:57.264Z,20.23
2023-08-13T17:03:59.217Z,5.30
2023-08-13T17:06:01.174Z,4.10
2023-08-13T17:08:03.055Z,5.53
2023-08-13T17:10:06.013Z,4.90
2023-08-13T17:12:07.938Z,7.60
2023-08-13T17:14:09.763Z,3.77
2023-08-13T17:16:11.659Z,4.70
2023-08-13T17:18:13.478Z,3.70
2023-08-13T17:20:15.224Z,5.43
2023-08-13T17:22:17.165Z,8.80
2023-08-13T17:24:18.954Z,3.63
2023-08-13T17:26:22.347Z,4.93
2023-08-13T17:28:24.052Z,3.70
2023-08-13T17:30:26.062Z,7.37
2023-08-13T17:32:27.782Z,5.00
2023-08-13T17:34:29.542Z,4.63
2023-08-13T17:36:31.390Z,3.83
2023-08-13T17:38:33.148Z,5.03
2023-08-13T17:40:35.057Z,6.10
2023-08-13T17:42:36.878Z,4.33
2023-08-13T17:44:38.651Z,5.03
2023-08-13T17:46:40.546Z,6.13
2023-08-13T17:48:42.321Z,5.27
2023-08-13T17:50:44.141Z,5.23
2023-08-13T17:52:46.025Z,5.90
2023-08-13T17:54:47.787Z,6.47
2023-08-13T17:56:49.522Z,3.93
2023-08-13T17:58:56.906Z,3.67
2023-08-13T18:01:01.556Z,8.13
2023-08-13T18:03:03.927Z,4.73
2023-08-13T18:05:06.041Z,4.23
2023-08-13T18:07:07.734Z,4.30
2023-08-13T18:09:09.558Z,4.53
2023-08-13T18:11:11.298Z,4.13
2023-08-13T18:13:13.292Z,4.13
2023-08-13T18:15:15.652Z,5.13
2023-08-13T18:17:17.686Z,4.60
2023-08-13T18:19:19.687Z,4.13
2023-08-13T18:21:21.514Z,5.00
2023-08-13T18:23:23.448Z,3.40
2023-08-13T18:25:25.235Z,5.10
2023-08-13T18:27:27.139Z,4.73
2023-08-13T18:29:28.853Z,5.27
2023-08-13T18:31:30.831Z,6.63
2023-08-13T18:33:32.597Z,5.30
2023-08-13T18:35:34.468Z,5.23
2023-08-13T18:37:36.230Z,6.80
2023-08-13T18:39:38.054Z,3.77
2023-08-13T18:41:39.870Z,4.13
2023-08-13T18:43:41.602Z,5.30
2023-08-13T18:45:43.451Z,3.83
2023-08-13T18:47:45.946Z,4.30
2023-08-13T18:49:47.842Z,3.77
2023-08-13T18:51:49.570Z,3.50
2023-08-13T18:53:52.455Z,5.30
2023-08-13T18:55:54.269Z,3.90
2023-08-13T18:57:56.101Z,4.97
2023-08-13T18:59:57.817Z,3.40
2023-08-13T19:01:59.738Z,3.27
2023-08-13T19:04:01.453Z,3.70
2023-08-13T19:06:03.429Z,4.40
2023-08-13T19:08:05.764Z,4.60
2023-08-13T19:10:08.394Z,4.40
2023-08-13T19:12:10.185Z,4.90
2023-08-13T19:14:12.194Z,5.20
2023-08-13T19:16:14.066Z,3.40
2023-08-13T19:18:15.757Z,4.20
2023-08-13T19:20:18.571Z,3.70
2023-08-13T19:22:20.313Z,3.70
2023-08-13T19:24:22.022Z,3.73
2023-08-13T19:26:24.293Z,5.03
2023-08-13T19:28:26.007Z,6.20
2023-08-13T19:30:27.908Z,5.33
2023-08-13T19:32:29.655Z,3.83
2023-08-13T19:34:32.561Z,7.27
2023-08-13T19:36:34.497Z,5.10
2023-08-13T19:38:36.334Z,3.40
2023-08-13T19:40:42.118Z,5.20
2023-08-13T19:42:43.918Z,3.70
2023-08-13T19:44:45.639Z,4.80
2023-08-13T19:46:47.485Z,4.30
2023-08-13T19:48:49.225Z,3.33
2023-08-13T19:50:52.041Z,3.87
2023-08-13T19:52:53.790Z,6.23
2023-08-13T19:54:55.765Z,3.70
2023-08-13T19:56:57.508Z,4.40
2023-08-13T19:58:59.236Z,4.50
2023-08-13T20:01:04.365Z,4.40
2023-08-13T20:03:07.056Z,6.37
2023-08-13T20:05:09.274Z,4.50
2023-08-13T20:07:10.975Z,3.97
2023-08-13T20:09:12.708Z,4.80
2023-08-13T20:11:16.206Z,4.03
2023-08-13T20:13:18.338Z,3.67
2023-08-13T20:15:20.300Z,3.80
2023-08-13T20:17:24.255Z,3.73
2023-08-13T20:19:26.073Z,4.30
2023-08-13T20:21:27.794Z,3.87
2023-08-13T20:23:29.488Z,5.30
2023-08-13T20:25:31.225Z,7.30
2023-08-13T20:27:32.987Z,4.37
2023-08-13T20:29:34.726Z,5.13
2023-08-13T20:31:36.699Z,4.30
2023-08-13T20:33:39.933Z,12.53
2023-08-13T20:35:41.746Z,4.67
2023-08-13T20:37:43.566Z,4.00
2023-08-13T20:39:45.380Z,5.27
2023-08-13T20:41:47.393Z,5.10
2023-08-13T20:43:49.519Z,4.70
2023-08-13T20:45:51.965Z,4.17
2023-08-13T20:47:53.864Z,6.23
2023-08-13T20:49:56.814Z,9.23
2023-08-13T20:51:58.531Z,5.20
2023-08-13T20:54:00.335Z,7.40
2023-08-13T20:56:02.242Z,5.43
2023-08-13T20:58:04.204Z,7.60
2023-08-13T21:00:08.049Z,8.07
2023-08-13T21:02:09.728Z,4.67
2023-08-13T21:04:11.573Z,4.53
2023-08-13T21:06:13.457Z,6.83
2023-08-13T21:08:15.207Z,6.97
2023-08-13T21:10:16.996Z,4.83
2023-08-13T21:12:19.018Z,6.27
2023-08-13T21:14:21.091Z,6.63
2023-08-13T21:16:22.919Z,5.53
2023-08-13T21:18:24.710Z,5.93
2023-08-13T21:20:26.509Z,7.07
2023-08-13T21:22:28.218Z,5.90
2023-08-13T21:24:29.942Z,6.87
2023-08-13T21:26:31.819Z,7.80
2023-08-13T21:28:33.810Z,9.67
2023-08-13T21:30:35.804Z,6.60
2023-08-13T21:32:38.388Z,5.33
2023-08-13T21:34:40.102Z,10.03
2023-08-13T21:36:41.898Z,6.63
2023-08-13T21:38:43.668Z,6.57
2023-08-13T21:40:45.439Z,6.37
2023-08-13T21:42:47.263Z,8.57
2023-08-13T21:44:49.316Z,9.87
2023-08-13T21:46:51.076Z,9.07
2023-08-13T21:48:53.020Z,7.20
2023-08-13T21:50:54.992Z,6.30
2023-08-13T21:52:56.737Z,7.23
2023-08-13T21:54:58.662Z,8.93
2023-08-13T21:57:00.485Z,13.40
2023-08-13T21:59:02.204Z,11.77
2023-08-13T22:01:04.040Z,7.33
2023-08-13T22:03:05.851Z,9.43
2023-08-13T22:05:08.010Z,8.03
2023-08-13T22:07:09.889Z,8.37
2023-08-13T22:09:11.651Z,7.60
2023-08-13T22:11:13.333Z,8.53
2023-08-13T22:13:15.097Z,10.00
2023-08-13T22:15:17.076Z,10.37
2023-08-13T22:17:18.907Z,9.63
2023-08-13T22:19:20.597Z,11.03
2023-08-13T22:21:22.369Z,10.47
2023-08-13T22:23:24.197Z,10.77
2023-08-13T22:25:26.522Z,10.57
2023-08-13T22:27:28.427Z,10.70
2023-08-13T22:29:30.251Z,18.33
2023-08-13T22:31:32.325Z,9.60
2023-08-13T22:33:34.019Z,12.37
2023-08-13T22:35:35.734Z,11.20
2023-08-13T22:37:37.759Z,14.80
2023-08-13T22:39:39.529Z,10.23
2023-08-13T22:41:41.185Z,12.63
2023-08-13T22:43:42.886Z,11.73
2023-08-13T22:45:44.630Z,10.67
2023-08-13T22:47:47.219Z,11.00
2023-08-13T22:49:49.334Z,13.23
2023-08-13T22:51:51.029Z,12.17
2023-08-13T22:53:54.304Z,11.90
2023-08-13T22:55:56.012Z,10.27
2023-08-13T22:57:57.969Z,9.23
2023-08-13T22:59:59.756Z,11.57
2023-08-13T23:02:02.193Z,9.80
2023-08-13T23:04:04.249Z,6.60
2023-08-13T23:06:05.992Z,18.13
2023-08-13T23:08:07.719Z,6.80
2023-08-13T23:10:09.721Z,6.30
2023-08-13T23:12:11.405Z,8.80
2023-08-13T23:14:13.483Z,8.00
2023-08-13T23:16:15.386Z,7.73
2023-08-13T23:18:17.464Z,8.00
2023-08-13T23:20:19.282Z,6.00
2023-08-13T23:22:20.989Z,6.67
2023-08-13T23:24:25.412Z,6.80
2023-08-13T23:26:27.795Z,5.77
2023-08-13T23:28:29.556Z,9.30
2023-08-13T23:30:31.380Z,9.77
2023-08-13T23:32:33.274Z,5.40
2023-08-13T23:34:35.360Z,7.47
2023-08-13T23:36:37.102Z,6.83
2023-08-13T23:38:39.026Z,6.43
2023-08-13T23:40:40.732Z,9.20
2023-08-13T23:42:42.524Z,6.80
2023-08-13T23:44:44.326Z,11.27
2023-08-13T23:46:46.151Z,6.27
2023-08-13T23:48:47.953Z,13.03
2023-08-13T23:50:55.608Z,7.70
2023-08-13T23:52:58.017Z,6.50
2023-08-13T23:54:59.770Z,6.40
2023-08-13T23:57:01.718Z,6.87
2023-08-13T23:59:03.600Z,6.50
